createdAt,value
2022-09-23T00:01:36.367Z,7.10
2022-09-23T00:04:04.951Z,7.00
2022-09-23T00:06:33.843Z,6.92
2022-09-23T00:09:02.841Z,6.90
2022-09-23T00:11:33.347Z,6.80
2022-09-23T00:14:01.951Z,6.80
2022-09-23T00:16:36.517Z,6.70
2022-09-23T00:19:06.835Z,6.70
2022-09-23T00:21:35.895Z,6.62
2022-09-23T00:24:05.239Z,6.60
2022-09-23T00:26:35.242Z,6.62
2022-09-23T00:29:04.413Z,6.60
2022-09-23T00:31:32.997Z,6.60
2022-09-23T00:34:02.305Z,6.60
2022-09-23T00:36:32.722Z,6.60
2022-09-23T00:39:02.639Z,6.54
2022-09-23T00:41:32.967Z,6.58
2022-09-23T00:44:03.985Z,6.58
2022-09-23T00:46:39.232Z,6.50
2022-09-23T00:49:15.721Z,6.50
2022-09-23T00:51:55.979Z,6.50
2022-09-23T00:54:28.284Z,6.50
2022-09-23T00:57:00.295Z,6.50
2022-09-23T00:59:29.409Z,6.50
2022-09-23T01:02:00.650Z,6.50
2022-09-23T01:04:30.576Z,6.50
2022-09-23T01:06:59.675Z,6.50
2022-09-23T01:09:29.105Z,6.56
2022-09-23T01:12:40.973Z,6.58
2022-09-23T01:15:35.069Z,6.60
2022-09-23T01:18:42.460Z,6.50
2022-09-23T01:21:39.402Z,6.50
2022-09-23T01:24:46.943Z,6.42
2022-09-23T01:27:28.077Z,6.40
2022-09-23T01:30:50.074Z,6.38
2022-09-23T01:33:31.805Z,6.30
2022-09-23T01:36:10.540Z,6.30
2022-09-23T01:38:45.008Z,6.30
2022-09-23T01:42:01.356Z,6.30
2022-09-23T01:44:52.067Z,6.30
2022-09-23T01:47:35.960Z,6.28
2022-09-23T01:50:33.873Z,6.20
2022-09-23T01:53:12.374Z,6.10
2022-09-23T01:55:47.983Z,6.00
2022-09-23T01:58:26.699Z,5.92
2022-09-23T02:01:07.344Z,5.90
2022-09-23T02:04:08.890Z,5.90
2022-09-23T02:06:52.526Z,5.90
2022-09-23T02:09:26.262Z,5.90
2022-09-23T02:12:06.079Z,5.90
2022-09-23T02:15:00.468Z,5.90
2022-09-23T02:17:43.902Z,5.80
2022-09-23T02:20:21.126Z,5.78
2022-09-23T02:22:57.328Z,5.70
2022-09-23T02:25:34.844Z,5.70
2022-09-23T02:28:14.180Z,5.70
2022-09-23T02:31:01.096Z,5.70
2022-09-23T02:33:44.628Z,5.70
2022-09-23T02:36:53.764Z,5.70
2022-09-23T02:39:31.700Z,5.70
2022-09-23T02:42:11.003Z,5.70
2022-09-23T02:44:40.923Z,5.60
2022-09-23T02:47:10.883Z,5.60
2022-09-23T02:49:39.525Z,5.60
2022-09-23T02:52:08.826Z,5.60
2022-09-23T02:54:38.143Z,5.50
2022-09-23T02:57:08.688Z,5.50
2022-09-23T02:59:37.962Z,5.50
2022-09-23T03:02:31.247Z,5.52
2022-09-23T03:05:30.624Z,5.60
2022-09-23T03:09:06.992Z,5.60
2022-09-23T03:11:40.825Z,5.50
2022-09-23T03:14:49.244Z,5.44
2022-09-23T03:17:25.594Z,5.40
2022-09-23T03:20:16.401Z,5.42
2022-09-23T03:22:56.248Z,5.48
2022-09-23T03:25:27.601Z,5.40
2022-09-23T03:27:59.720Z,5.40
2022-09-23T03:30:30.931Z,5.38
2022-09-23T03:33:01.165Z,5.30
2022-09-23T03:35:33.609Z,5.30
2022-09-23T03:38:17.591Z,5.30
2022-09-23T03:40:51.235Z,5.30
2022-09-23T03:43:20.140Z,5.30
2022-09-23T03:45:48.786Z,5.30
2022-09-23T03:48:17.623Z,5.30
2022-09-23T03:50:46.618Z,5.20
2022-09-23T03:53:15.212Z,5.18
2022-09-23T03:55:43.890Z,5.10
2022-09-23T03:58:12.371Z,5.10
2022-09-23T04:00:41.407Z,5.10
2022-09-23T04:03:11.863Z,5.10
2022-09-23T04:05:41.913Z,5.10
2022-09-23T04:08:10.498Z,5.10
2022-09-23T04:10:42.562Z,5.10
2022-09-23T04:13:11.146Z,5.10
2022-09-23T04:15:41.696Z,5.10
2022-09-23T04:18:10.265Z,5.10
2022-09-23T04:20:39.664Z,5.10
2022-09-23T04:23:08.513Z,5.08
2022-09-23T04:25:44.513Z,5.02
2022-09-23T04:28:13.531Z,5.00
2022-09-23T04:30:44.587Z,5.00
2022-09-23T04:33:14.483Z,5.00
2022-09-23T04:35:43.825Z,5.00
2022-09-23T04:38:13.450Z,5.00
2022-09-23T04:40:42.051Z,5.00
2022-09-23T04:43:13.563Z,5.00
2022-09-23T04:45:45.683Z,4.94
2022-09-23T04:48:14.165Z,5.00
2022-09-23T04:50:42.750Z,5.00
2022-09-23T04:53:11.332Z,5.00
2022-09-23T04:55:39.920Z,5.00
2022-09-23T04:58:10.244Z,5.00
2022-09-23T05:00:38.763Z,5.00
2022-09-23T05:03:07.582Z,5.00
2022-09-23T05:05:36.101Z,4.90
2022-09-23T05:08:04.590Z,5.00
2022-09-23T05:10:33.472Z,5.00
2022-09-23T05:13:01.959Z,5.00
2022-09-23T05:15:30.550Z,5.00
2022-09-23T05:17:59.531Z,5.00
2022-09-23T05:20:28.429Z,4.90
2022-09-23T05:22:57.110Z,4.90
2022-09-23T05:25:25.594Z,4.90
2022-09-23T05:27:54.284Z,4.94
2022-09-23T05:30:22.765Z,5.00
2022-09-23T05:32:51.252Z,5.00
2022-09-23T05:35:19.744Z,5.00
2022-09-23T05:37:48.207Z,5.10
2022-09-23T05:40:17.118Z,5.16
2022-09-23T05:42:45.927Z,5.24
2022-09-23T05:45:14.727Z,5.30
2022-09-23T05:47:44.286Z,5.40
2022-09-23T05:50:12.772Z,5.48
2022-09-23T05:52:41.557Z,5.50
2022-09-23T05:55:11.984Z,5.52
2022-09-23T05:57:40.479Z,5.60
2022-09-23T06:00:10.970Z,5.70
2022-09-23T06:02:42.798Z,5.80
2022-09-23T06:05:12.471Z,6.00
2022-09-23T06:07:41.057Z,6.20
2022-09-23T06:10:09.941Z,6.50
2022-09-23T06:12:38.424Z,6.80
2022-09-23T06:15:08.031Z,7.26
2022-09-23T06:17:36.518Z,7.82
2022-09-23T06:20:05.958Z,8.40
2022-09-23T06:22:37.766Z,9.06
2022-09-23T06:25:08.960Z,9.86
2022-09-23T06:27:37.508Z,10.80
2022-09-23T06:30:07.635Z,11.60
2022-09-23T06:32:36.110Z,12.36
2022-09-23T06:35:06.068Z,13.16
2022-09-23T06:37:35.428Z,13.92
2022-09-23T06:40:04.642Z,14.66
2022-09-23T06:42:33.110Z,15.30
2022-09-23T06:45:02.350Z,15.96
2022-09-23T06:47:30.893Z,16.56
2022-09-23T06:49:59.477Z,17.08
2022-09-23T06:52:28.984Z,17.58
2022-09-23T06:54:57.773Z,18.00
2022-09-23T06:57:30.049Z,18.32
2022-09-23T07:00:01.727Z,18.60
2022-09-23T07:02:30.494Z,18.90
2022-09-23T07:04:59.176Z,19.38
2022-09-23T07:07:31.755Z,20.06
2022-09-23T07:10:00.440Z,20.58
2022-09-23T07:12:29.128Z,21.06
2022-09-23T07:14:57.712Z,21.48
2022-09-23T07:17:27.253Z,21.72
2022-09-23T07:19:55.700Z,22.10
2022-09-23T07:22:26.615Z,22.50
2022-09-23T07:24:57.989Z,22.88
2022-09-23T07:27:28.864Z,23.24
2022-09-23T07:29:57.615Z,23.52
2022-09-23T07:32:26.295Z,23.80
2022-09-23T07:34:55.194Z,23.90
2022-09-23T07:37:23.780Z,23.94
2022-09-23T07:39:52.465Z,23.78
2022-09-23T07:42:21.050Z,24.24
2022-09-23T07:44:49.531Z,24.84
2022-09-23T07:47:18.525Z,25.38
2022-09-23T07:49:47.010Z,25.86
2022-09-23T07:52:15.548Z,26.30
2022-09-23T07:54:48.000Z,26.26
2022-09-23T07:57:16.753Z,26.50
2022-09-23T07:59:45.235Z,26.60
2022-09-23T08:02:16.747Z,26.60
2022-09-23T08:04:45.681Z,26.86
2022-09-23T08:07:14.779Z,26.84
2022-09-23T08:09:44.388Z,26.80
2022-09-23T08:12:18.075Z,26.70
2022-09-23T08:14:46.676Z,26.96
2022-09-23T08:17:15.156Z,27.14
2022-09-23T08:19:43.741Z,27.56
2022-09-23T08:22:12.541Z,27.92
2022-09-23T08:24:41.020Z,28.10
2022-09-23T08:27:11.133Z,28.22
2022-09-23T08:29:39.717Z,28.40
2022-09-23T08:32:08.201Z,28.20
2022-09-23T08:34:37.091Z,28.06
2022-09-23T08:37:10.590Z,28.20
2022-09-23T08:39:39.280Z,28.10
2022-09-23T08:42:19.229Z,28.10
2022-09-23T08:44:57.844Z,28.20
2022-09-23T08:48:02.123Z,27.90
2022-09-23T08:50:42.514Z,28.10
2022-09-23T08:53:29.144Z,28.30
2022-09-23T08:56:01.031Z,28.20
2022-09-23T08:59:03.789Z,28.20
2022-09-23T09:01:58.384Z,28.50
2022-09-23T09:04:36.182Z,28.60
2022-09-23T09:07:34.806Z,28.60
2022-09-23T09:10:11.805Z,28.50
2022-09-23T09:12:46.807Z,28.20
2022-09-23T09:15:27.626Z,27.88
2022-09-23T09:18:12.473Z,27.80
2022-09-23T09:21:10.305Z,27.90
2022-09-23T09:23:57.148Z,27.70
2022-09-23T09:26:34.605Z,27.02
2022-09-23T09:29:41.625Z,26.70
2022-09-23T09:32:35.770Z,26.48
2022-09-23T09:35:38.104Z,26.36
2022-09-23T09:38:06.935Z,26.10
2022-09-23T09:40:35.791Z,26.10
2022-09-23T09:43:05.026Z,26.18
2022-09-23T09:46:08.667Z,26.38
2022-09-23T09:49:25.655Z,26.60
2022-09-23T09:52:31.948Z,26.40
2022-09-23T09:55:12.634Z,26.40
2022-09-23T09:57:52.478Z,26.40
2022-09-23T10:00:50.966Z,26.30
2022-09-23T10:03:38.801Z,26.22
2022-09-23T10:06:36.158Z,26.20
2022-09-23T10:09:22.236Z,26.00
2022-09-23T10:12:18.711Z,25.74
2022-09-23T10:14:51.498Z,25.22
2022-09-23T10:17:36.440Z,25.10
2022-09-23T10:20:10.226Z,24.44
2022-09-23T10:22:43.057Z,23.80
2022-09-23T10:25:24.857Z,23.30
2022-09-23T10:27:53.922Z,23.30
2022-09-23T10:30:28.303Z,23.40
2022-09-23T10:32:57.462Z,23.40
2022-09-23T10:35:26.775Z,23.36
2022-09-23T10:37:58.170Z,23.14
2022-09-23T10:40:48.650Z,22.64
2022-09-23T10:43:53.019Z,22.30
2022-09-23T10:46:45.123Z,22.40
2022-09-23T10:49:51.937Z,22.68
2022-09-23T10:52:36.604Z,22.60
2022-09-23T10:55:13.992Z,22.02
2022-09-23T10:57:45.446Z,21.80
2022-09-23T11:00:27.138Z,21.70
2022-09-23T11:03:04.530Z,21.66
2022-09-23T11:05:48.067Z,21.62
2022-09-23T11:08:43.788Z,21.80
2022-09-23T11:12:09.003Z,22.00
2022-09-23T11:15:34.523Z,21.90
2022-09-23T11:18:37.413Z,21.50
2022-09-23T11:21:49.324Z,21.30
2022-09-23T11:25:01.012Z,21.50
2022-09-23T11:28:07.382Z,21.60
2022-09-23T11:31:21.863Z,21.50
2022-09-23T11:35:11.735Z,21.40
2022-09-23T11:37:47.278Z,21.00
2022-09-23T11:40:31.285Z,20.80
2022-09-23T11:43:18.765Z,20.70
2022-09-23T11:46:01.637Z,20.60
2022-09-23T11:48:54.636Z,20.44
2022-09-23T11:51:39.400Z,20.40
2022-09-23T11:54:21.232Z,20.40
2022-09-23T11:56:58.957Z,20.50
2022-09-23T12:00:16.058Z,20.62
2022-09-23T12:03:18.997Z,20.70
2022-09-23T12:06:12.841Z,20.74
2022-09-23T12:08:41.371Z,20.70
2022-09-23T12:11:28.357Z,20.60
2022-09-23T12:14:41.155Z,20.50
2022-09-23T12:17:37.544Z,20.40
2022-09-23T12:20:31.216Z,20.40
2022-09-23T12:23:33.902Z,20.50
2022-09-23T12:26:08.472Z,20.60
2022-09-23T12:28:45.318Z,20.60
2022-09-23T12:31:18.922Z,20.44
2022-09-23T12:33:53.883Z,20.40
2022-09-23T12:36:35.575Z,20.40
2022-09-23T12:39:27.670Z,20.50
2022-09-23T12:42:03.513Z,20.50
2022-09-23T12:44:45.437Z,20.40
2022-09-23T12:47:25.271Z,20.30
2022-09-23T12:49:57.550Z,20.20
2022-09-23T12:52:31.678Z,20.10
2022-09-23T12:55:24.919Z,20.10
2022-09-23T12:57:53.503Z,20.20
2022-09-23T13:00:26.915Z,20.10
2022-09-23T13:03:19.962Z,20.10
2022-09-23T13:06:15.784Z,20.00
2022-09-23T13:08:46.520Z,20.00
2022-09-23T13:11:40.705Z,19.90
2022-09-23T13:14:16.150Z,19.80
2022-09-23T13:16:46.130Z,19.80
2022-09-23T13:19:26.531Z,19.80
2022-09-23T13:21:55.017Z,19.80
2022-09-23T13:24:23.391Z,19.90
2022-09-23T13:26:57.608Z,19.92
2022-09-23T13:29:55.890Z,19.92
2022-09-23T13:32:33.171Z,19.90
2022-09-23T13:35:36.065Z,20.00
2022-09-23T13:38:26.667Z,20.10
2022-09-23T13:41:28.943Z,20.20
2022-09-23T13:43:59.516Z,20.20
2022-09-23T13:46:34.489Z,20.20
2022-09-23T13:49:03.501Z,20.30
2022-09-23T13:51:35.875Z,20.30
2022-09-23T13:54:05.416Z,20.38
2022-09-23T13:56:36.868Z,20.30
2022-09-23T13:59:25.180Z,20.20
2022-09-23T14:02:17.323Z,20.20
2022-09-23T14:04:47.141Z,20.24
2022-09-23T14:07:19.237Z,20.20
2022-09-23T14:09:51.241Z,20.10
2022-09-23T14:12:22.568Z,19.98
2022-09-23T14:14:52.997Z,19.88
2022-09-23T14:17:23.184Z,19.80
2022-09-23T14:19:52.056Z,19.60
2022-09-23T14:22:31.343Z,19.40
2022-09-23T14:25:00.188Z,19.40
2022-09-23T14:27:36.448Z,19.32
2022-09-23T14:30:06.142Z,19.30
2022-09-23T14:32:34.947Z,19.20
2022-09-23T14:35:04.251Z,19.20
2022-09-23T14:37:59.664Z,19.18
2022-09-23T14:40:29.012Z,19.10
2022-09-23T14:43:39.132Z,19.00
2022-09-23T14:46:18.589Z,19.10
2022-09-23T14:49:13.169Z,19.00
2022-09-23T14:52:11.673Z,19.00
2022-09-23T14:54:42.485Z,19.00
2022-09-23T14:57:23.562Z,19.00
2022-09-23T15:00:09.493Z,19.00
2022-09-23T15:02:43.490Z,19.00
2022-09-23T15:05:30.998Z,19.00
2022-09-23T15:08:03.140Z,18.90
2022-09-23T15:10:37.733Z,18.90
2022-09-23T15:13:18.153Z,18.90
2022-09-23T15:15:47.263Z,18.80
2022-09-23T15:18:29.244Z,18.78
2022-09-23T15:21:03.884Z,18.70
2022-09-23T15:23:41.879Z,18.56
2022-09-23T15:26:22.526Z,18.38
2022-09-23T15:28:56.085Z,18.20
2022-09-23T15:31:26.876Z,18.20
2022-09-23T15:33:56.286Z,18.10
2022-09-23T15:36:27.971Z,18.08
2022-09-23T15:39:05.643Z,18.00
2022-09-23T15:41:34.429Z,17.90
2022-09-23T15:44:20.687Z,17.74
2022-09-23T15:46:52.146Z,17.68
2022-09-23T15:49:33.156Z,17.56
2022-09-23T15:52:04.099Z,17.50
2022-09-23T15:54:34.070Z,17.50
2022-09-23T15:57:02.917Z,17.50
2022-09-23T15:59:31.947Z,17.50
2022-09-23T16:02:08.146Z,17.50
2022-09-23T16:04:37.671Z,17.40
2022-09-23T16:07:06.308Z,17.40
2022-09-23T16:09:34.940Z,17.30
2022-09-23T16:12:03.528Z,17.30
2022-09-23T16:14:32.210Z,17.20
2022-09-23T16:17:03.765Z,17.14
2022-09-23T16:19:34.501Z,17.10
2022-09-23T16:22:04.622Z,17.00
2022-09-23T16:24:33.308Z,16.90
2022-09-23T16:27:06.296Z,16.80
2022-09-23T16:29:35.331Z,16.70
2022-09-23T16:32:04.123Z,16.50
2022-09-23T16:34:35.134Z,16.40
2022-09-23T16:37:05.043Z,16.30
2022-09-23T16:39:33.622Z,16.20
2022-09-23T16:42:02.513Z,16.02
2022-09-23T16:44:33.352Z,15.90
2022-09-23T16:47:02.040Z,15.80
2022-09-23T16:49:30.519Z,15.70
2022-09-23T16:52:01.869Z,15.60
2022-09-23T16:54:30.483Z,15.40
2022-09-23T16:56:59.447Z,15.22
2022-09-23T16:59:48.000Z,15.10
2022-09-23T17:02:35.073Z,15.00
2022-09-23T17:05:04.114Z,14.90
2022-09-23T17:07:32.799Z,14.80
2022-09-23T17:10:01.692Z,14.70
2022-09-23T17:12:33.608Z,14.60
2022-09-23T17:15:07.551Z,14.50
2022-09-23T17:17:38.032Z,14.40
2022-09-23T17:20:07.715Z,14.30
2022-09-23T17:22:36.393Z,14.20
2022-09-23T17:25:05.898Z,14.10
2022-09-23T17:27:35.504Z,14.00
2022-09-23T17:30:05.936Z,13.90
2022-09-23T17:32:34.722Z,13.80
2022-09-23T17:35:04.959Z,13.78
2022-09-23T17:37:34.279Z,13.70
2022-09-23T17:40:03.346Z,13.60
2022-09-23T17:42:32.234Z,13.52
2022-09-23T17:45:00.716Z,13.50
2022-09-23T17:47:29.299Z,13.42
2022-09-23T17:49:58.369Z,13.40
2022-09-23T17:52:26.981Z,13.30
2022-09-23T17:54:55.463Z,13.20
2022-09-23T17:57:23.945Z,13.12
2022-09-23T17:59:53.963Z,13.10
2022-09-23T18:02:23.715Z,13.00
2022-09-23T18:04:52.265Z,12.92
2022-09-23T18:07:20.843Z,12.90
2022-09-23T18:09:49.427Z,12.80
2022-09-23T18:12:18.115Z,12.80
2022-09-23T18:14:48.029Z,12.70
2022-09-23T18:17:17.742Z,12.70
2022-09-23T18:19:49.602Z,12.70
2022-09-23T18:22:18.186Z,12.60
2022-09-23T18:24:47.098Z,12.60
2022-09-23T18:27:16.072Z,12.60
2022-09-23T18:29:45.069Z,12.50
2022-09-23T18:32:14.502Z,12.50
2022-09-23T18:34:43.874Z,12.50
2022-09-23T18:37:16.112Z,12.50
2022-09-23T18:39:45.140Z,12.50
2022-09-23T18:42:14.746Z,12.50
2022-09-23T18:44:43.536Z,12.48
2022-09-23T18:47:32.497Z,12.40
2022-09-23T18:50:19.719Z,12.40
2022-09-23T18:52:48.613Z,12.40
2022-09-23T18:55:17.299Z,12.30
2022-09-23T18:57:48.254Z,12.20
2022-09-23T19:00:17.333Z,12.10
2022-09-23T19:02:46.226Z,12.00
2022-09-23T19:05:15.325Z,12.00
2022-09-23T19:07:44.221Z,11.94
2022-09-23T19:10:13.004Z,11.90
2022-09-23T19:12:41.893Z,11.92
2022-09-23T19:15:11.253Z,11.94
2022-09-23T19:17:39.881Z,11.90
2022-09-23T19:20:10.388Z,11.90
2022-09-23T19:22:39.918Z,11.90
2022-09-23T19:25:09.323Z,11.80
2022-09-23T19:27:39.656Z,11.80
2022-09-23T19:30:12.108Z,11.80
2022-09-23T19:32:41.537Z,11.70
2022-09-23T19:35:10.498Z,11.70
2022-09-23T19:37:39.825Z,11.60
2022-09-23T19:40:09.819Z,11.60
2022-09-23T19:42:38.579Z,11.60
2022-09-23T19:45:08.316Z,11.50
2022-09-23T19:47:38.460Z,11.40
2022-09-23T19:50:07.969Z,11.32
2022-09-23T19:52:36.652Z,11.30
2022-09-23T19:55:06.793Z,11.30
2022-09-23T19:57:35.461Z,11.30
2022-09-23T20:00:05.743Z,11.30
2022-09-23T20:02:42.880Z,11.20
2022-09-23T20:05:14.566Z,11.20
2022-09-23T20:07:45.159Z,11.18
2022-09-23T20:10:14.873Z,11.10
2022-09-23T20:12:44.480Z,11.10
2022-09-23T20:15:13.267Z,11.00
2022-09-23T20:17:41.850Z,11.00
2022-09-23T20:20:13.536Z,10.90
2022-09-23T20:22:42.589Z,10.90
2022-09-23T20:25:13.855Z,10.80
2022-09-23T20:27:42.437Z,10.90
2022-09-23T20:30:12.187Z,10.90
2022-09-23T20:32:44.475Z,10.90
2022-09-23T20:35:13.924Z,10.90
2022-09-23T20:37:42.915Z,10.90
2022-09-23T20:40:11.643Z,10.90
2022-09-23T20:42:40.805Z,11.00
2022-09-23T20:45:10.220Z,11.00
2022-09-23T20:47:38.793Z,11.00
2022-09-23T20:50:08.510Z,11.00
2022-09-23T20:52:37.086Z,10.98
2022-09-23T20:55:06.622Z,10.90
2022-09-23T20:57:35.177Z,10.98
2022-09-23T21:00:05.412Z,11.00
2022-09-23T21:02:34.130Z,11.00
2022-09-23T21:05:02.776Z,11.00
2022-09-23T21:07:32.281Z,11.00
2022-09-23T21:10:07.215Z,11.00
2022-09-23T21:12:36.108Z,11.00
2022-09-23T21:15:07.566Z,11.00
2022-09-23T21:17:36.345Z,11.00
2022-09-23T21:20:06.203Z,11.00
2022-09-23T21:22:35.768Z,10.94
2022-09-23T21:27:54.440Z,10.90
2022-09-23T21:30:23.432Z,10.90
2022-09-23T21:32:52.225Z,10.90
2022-09-23T21:35:21.992Z,10.90
2022-09-23T21:37:50.825Z,10.90
2022-09-23T21:40:38.060Z,10.90
2022-09-23T21:43:07.042Z,10.90
2022-09-23T21:45:35.623Z,10.90
2022-09-23T21:48:05.337Z,10.90
2022-09-23T21:50:37.501Z,10.90
2022-09-23T21:53:07.008Z,10.90
2022-09-23T21:55:35.593Z,10.80
2022-09-23T21:58:04.902Z,10.80
2022-09-23T22:00:33.506Z,10.70
2022-09-23T22:03:02.972Z,10.70
2022-09-23T22:05:31.876Z,10.68
2022-09-23T22:08:00.460Z,10.60
2022-09-23T22:10:29.251Z,10.62
2022-09-23T22:12:57.841Z,10.70
2022-09-23T22:15:26.623Z,10.70
2022-09-23T22:17:58.391Z,10.70
2022-09-23T22:20:28.410Z,10.70
2022-09-23T22:22:57.600Z,10.64
2022-09-23T22:25:26.183Z,10.60
2022-09-23T22:28:14.223Z,10.60
2022-09-23T22:31:01.608Z,10.60
2022-09-23T22:33:30.235Z,10.52
2022-09-23T22:36:04.034Z,10.54
2022-09-23T22:38:33.241Z,10.54
2022-09-23T22:41:02.113Z,10.50
2022-09-23T22:43:33.788Z,10.60
2022-09-23T22:46:02.889Z,10.60
2022-09-23T22:48:31.368Z,10.58
2022-09-23T22:50:59.852Z,10.58
2022-09-23T22:53:28.672Z,10.58
2022-09-23T22:56:01.423Z,10.50
2022-09-23T22:58:32.615Z,10.50
2022-09-23T23:01:02.786Z,10.50
2022-09-23T23:03:33.709Z,10.50
2022-09-23T23:06:03.439Z,10.50
2022-09-23T23:08:32.228Z,10.40
2022-09-23T23:11:11.665Z,10.40
2022-09-23T23:13:42.033Z,10.40
2022-09-23T23:16:13.153Z,10.40
2022-09-23T23:18:43.507Z,10.40
2022-09-23T23:21:18.336Z,10.40
2022-09-23T23:23:53.082Z,10.40
2022-09-23T23:26:25.742Z,10.40
2022-09-23T23:28:56.922Z,10.40
2022-09-23T23:31:29.169Z,10.40
2022-09-23T23:33:58.112Z,10.40
2022-09-23T23:36:26.593Z,10.40
2022-09-23T23:38:55.177Z,10.40
2022-09-23T23:41:23.973Z,10.40
2022-09-23T23:43:59.432Z,10.40
2022-09-23T23:46:31.140Z,10.40
2022-09-23T23:49:00.577Z,10.40
2022-09-23T23:51:30.221Z,10.40
2022-09-23T23:53:59.720Z,10.40
2022-09-23T23:56:30.738Z,10.40
2022-09-23T23:59:02.757Z,10.40
